Time;durP1;ratioP1;P1;durP2;ratioP2;P2;SDS_P1;SDS_P2;PMS_P1;PMS_P2;Temp;Humidity;BMP_temperature;BMP_pressure;BME280_temperature;BME280_humidity;BME280_pressure;Samples;Min_cycle;Max_cycle;Signal;HPM_P1;HPM_P2
2021/09/11 00:01:51;;;;;;;14.00;9.60;;;;;;;10.26;72.64;97627.67;116246;1179;59524;-68
2021/09/11 00:04:21;;;;;;;10.10;7.50;;;;;;;10.23;72.86;97626.50;116324;1181;71323;-67
2021/09/11 00:06:51;;;;;;;13.30;8.00;;;;;;;10.20;73.41;97626.11;116253;1181;69108;-71
2021/09/11 00:09:20;;;;;;;;;;;;;;;10.19;75.42;97626.58;116125;1178;68438;-67
2021/09/11 00:11:49;;;;;;;8.40;6.10;;;;;;;10.17;74.51;97629.84;116320;1177;59549;-70
2021/09/11 00:14:18;;;;;;;15.00;9.40;;;;;;;10.14;76.85;97632.27;116297;1178;59627;-68
2021/09/11 00:16:48;;;;;;;9.40;6.60;;;;;;;10.10;75.89;97631.31;116349;1178;71717;-68
2021/09/11 00:19:17;;;;;;;8.30;6.60;;;;;;;10.09;73.12;97629.65;116118;1181;68398;-66
2021/09/11 00:21:47;;;;;;;8.70;6.90;;;;;;;10.05;76.57;97623.65;116163;1184;68400;-71
2021/09/11 00:24:17;;;;;;;12.20;7.90;;;;;;;9.98;77.72;97630.41;116263;1180;59508;-71
2021/09/11 00:26:46;;;;;;;11.50;7.80;;;;;;;9.94;74.54;97627.54;116261;1182;59554;-69
2021/09/11 00:29:15;;;;;;;12.70;9.10;;;;;;;9.91;74.04;97626.52;116195;1183;70603;-69
2021/09/11 00:31:44;;;;;;;11.00;7.60;;;;;;;9.88;73.84;97624.78;116315;1182;68812;-66
2021/09/11 00:34:14;;;;;;;9.80;5.90;;;;;;;9.86;74.56;97621.11;116137;1183;69008;-70
2021/09/11 00:36:44;;;;;;;12.30;10.30;;;;;;;9.84;73.74;97618.29;116164;1181;59524;-67
2021/09/11 00:39:14;;;;;;;14.90;11.90;;;;;;;9.80;76.58;97621.55;116204;1182;59568;-68
2021/09/11 00:41:43;;;;;;;17.10;11.20;;;;;;;9.73;76.45;97620.79;116241;1183;71232;-68
2021/09/11 00:44:13;;;;;;;16.90;9.90;;;;;;;9.64;76.98;97621.17;116085;1184;68972;-66
2021/09/11 00:46:42;;;;;;;18.30;12.90;;;;;;;9.53;78.05;97616.86;116194;1178;69154;-67
2021/09/11 00:49:12;;;;;;;18.30;13.40;;;;;;;9.35;80.18;97623.58;116325;1177;59541;-69
2021/09/11 00:51:42;;;;;;;;;;;;;;;9.21;81.77;97624.12;116416;1181;59534;-67
2021/09/11 00:54:12;;;;;;;12.10;8.20;;;;;;;9.14;81.15;97626.34;116359;1178;71338;-66
2021/09/11 00:56:42;;;;;;;9.90;8.80;;;;;;;9.14;79.39;97620.92;116508;1182;68172;-67
2021/09/11 00:59:11;;;;;;;12.00;8.00;;;;;;;9.15;79.01;97618.23;116562;1179;68253;-66
2021/09/11 01:01:41;;;;;;;7.50;5.10;;;;;;;9.17;78.09;97618.44;116544;1178;59499;-70
2021/09/11 01:04:11;;;;;;;7.10;5.20;;;;;;;9.21;76.26;97616.17;116453;1181;59554;-69
2021/09/11 01:06:41;;;;;;;6.80;5.90;;;;;;;9.25;77.31;97617.66;116589;1181;71173;-69
2021/09/11 01:09:12;;;;;;;10.40;6.50;;;;;;;9.26;76.31;97620.02;116406;1181;68117;-68
2021/09/11 01:11:42;;;;;;;8.60;5.10;;;;;;;9.26;75.55;97621.59;116497;1181;69184;-67
2021/09/11 01:14:13;;;;;;;13.20;7.70;;;;;;;9.27;74.56;97621.48;116410;1181;59533;-69
2021/09/11 01:16:43;;;;;;;12.30;8.20;;;;;;;9.28;74.87;97621.10;116380;1181;59572;-69
2021/09/11 01:19:13;;;;;;;13.20;9.10;;;;;;;9.27;75.46;97622.92;116309;1181;71404;-67
2021/09/11 01:21:44;;;;;;;10.10;8.20;;;;;;;9.23;77.23;97623.48;116330;1181;68225;-69
2021/09/11 01:24:14;;;;;;;;;;;;;;;9.20;77.82;97628.73;116293;1181;68654;-68
2021/09/11 01:26:43;;;;;;;11.20;7.60;;;;;;;9.17;76.71;97629.45;116332;1179;59545;-66
2021/09/11 01:29:13;;;;;;;10.90;6.50;;;;;;;9.13;76.84;97628.44;116434;1182;59548;-66
2021/09/11 01:31:43;;;;;;;14.40;10.60;;;;;;;9.10;77.01;97627.30;116358;1181;71370;-68
2021/09/11 01:34:13;;;;;;;9.50;7.50;;;;;;;9.07;77.62;97628.88;116211;1181;69245;-67
2021/09/11 01:36:43;;;;;;;9.10;5.40;;;;;;;9.05;76.84;97630.52;116110;1182;69314;-69
2021/09/11 01:39:13;;;;;;;11.70;8.90;;;;;;;9.08;76.07;97629.14;116140;1183;59534;-69
2021/09/11 01:41:43;;;;;;;16.60;11.80;;;;;;;9.06;79.84;97626.34;116112;1182;59489;-69
2021/09/11 01:44:13;;;;;;;;;;;;;;;9.02;81.55;97624.66;116180;1183;71338;-67
2021/09/11 01:46:43;;;;;;;12.30;9.10;;;;;;;8.99;81.25;97624.67;116181;1183;68240;-66
2021/09/11 01:49:13;;;;;;;8.70;7.20;;;;;;;8.97;80.21;97624.10;116194;1182;69213;-68
2021/09/11 01:51:48;;;;;;;12.20;8.90;;;;;;;8.97;79.38;97623.09;116182;1182;59515;-66
2021/09/11 01:54:19;;;;;;;10.70;8.00;;;;;;;8.96;79.94;97623.11;116161;1181;59562;-65
2021/09/11 01:56:49;;;;;;;5.50;4.20;;;;;;;8.95;78.97;97622.11;116148;1182;71170;-66
2021/09/11 01:59:18;;;;;;;11.50;6.90;;;;;;;8.96;76.94;97620.36;116119;1183;69023;-68
2021/09/11 02:01:49;;;;;;;8.40;6.10;;;;;;;8.95;76.80;97611.55;116293;1182;68572;-69
2021/09/11 02:04:20;;;;;;;8.60;6.90;;;;;;;8.95;76.41;97615.20;116252;1178;59553;-67
2021/09/11 02:06:50;;;;;;;6.80;4.50;;;;;;;8.94;76.53;97616.83;116129;1183;59538;-69
2021/09/11 02:09:19;;;;;;;;;;;;;;;8.93;76.07;97617.03;116161;1182;71365;-68
2021/09/11 02:11:51;;;;;;;9.50;7.30;;;;;;;8.91;77.20;97616.83;116163;1182;68204;-67
2021/09/11 02:14:21;;;;;;;10.60;9.20;;;;;;;8.89;76.88;97617.45;116195;1183;69272;-68
2021/09/11 02:16:52;;;;;;;9.00;6.60;;;;;;;8.87;77.14;97620.35;116200;1179;59528;-67
2021/09/11 02:19:22;;;;;;;9.90;7.80;;;;;;;8.87;76.09;97623.48;116228;1181;59500;-67
2021/09/11 02:21:52;;;;;;;11.40;7.70;;;;;;;8.85;76.09;97620.67;116218;1181;71401;-68
2021/09/11 02:24:22;;;;;;;8.30;6.90;;;;;;;8.83;77.83;97620.13;116227;1181;69113;-68
2021/09/11 02:26:52;;;;;;;;;;;;;;;8.81;76.94;97620.95;116213;1182;68981;-69
2021/09/11 02:29:23;;;;;;;7.80;5.10;;;;;;;8.79;75.65;97620.22;116174;1179;59517;-67
2021/09/11 02:31:54;;;;;;;8.30;5.60;;;;;;;8.78;75.06;97622.35;116225;1181;59566;-69
2021/09/11 02:34:25;;;;;;;9.50;7.90;;;;;;;8.75;76.05;97620.95;116243;1182;71317;-68
2021/09/11 02:36:55;;;;;;;10.20;7.50;;;;;;;8.74;76.91;97622.95;116227;1182;68539;-68
2021/09/11 02:39:26;;;;;;;7.90;6.10;;;;;;;8.71;77.49;97622.28;116209;1181;69281;-67
2021/09/11 02:41:58;;;;;;;9.20;6.10;;;;;;;8.68;77.02;97617.01;116124;1181;59510;-66
2021/09/11 02:44:28;;;;;;;10.00;7.60;;;;;;;8.66;79.06;97617.14;116227;1182;59560;-69
2021/09/11 02:46:58;;;;;;;10.80;8.90;;;;;;;8.64;79.69;97618.33;116169;1182;71156;-67
2021/09/11 02:49:29;;;;;;;10.30;7.20;;;;;;;8.62;79.66;97621.05;116116;1182;68639;-67
2021/09/11 02:51:59;;;;;;;15.00;10.30;;;;;;;8.62;79.05;97622.62;116209;1181;68402;-66
2021/09/11 02:54:30;;;;;;;13.00;10.10;;;;;;;8.61;81.06;97625.48;116225;1182;59546;-66
2021/09/11 02:57:00;;;;;;;12.10;8.00;;;;;;;8.57;81.32;97622.43;116233;1178;59501;-66
2021/09/11 02:59:30;;;;;;;11.10;8.20;;;;;;;8.53;78.90;97622.48;116228;1181;70625;-67
2021/09/11 03:02:00;;;;;;;7.80;5.80;;;;;;;8.51;78.04;97623.13;116204;1178;68532;-66
2021/09/11 03:04:30;;;;;;;;;;;;;;;8.49;77.49;97626.02;116175;1182;68258;-65
2021/09/11 03:07:01;;;;;;;8.50;6.80;;;;;;;8.48;77.59;97626.10;116214;1182;59975;-66
2021/09/11 03:09:31;;;;;;;8.00;5.70;;;;;;;8.46;77.13;97626.73;116225;1182;59528;-66
2021/09/11 03:12:01;;;;;;;11.50;8.10;;;;;;;8.44;77.43;97627.35;116247;1182;70762;-66
2021/09/11 03:14:31;;;;;;;;;;;;;;;8.43;77.92;97628.31;116263;1181;69165;-65
2021/09/11 03:17:01;;;;;;;8.40;5.70;;;;;;;8.43;77.85;97629.22;116236;1183;69144;-65
2021/09/11 03:19:32;;;;;;;;;;;;;;;8.40;78.40;97629.30;116201;1183;59545;-66
2021/09/11 03:22:02;;;;;;;7.30;5.40;;;;;;;8.39;77.50;97626.95;116173;1183;59933;-68
2021/09/11 03:24:32;;;;;;;7.90;6.40;;;;;;;8.39;77.26;97629.93;116026;1183;69872;-68
2021/09/11 03:27:02;;;;;;;9.50;5.50;;;;;;;8.38;77.09;97628.62;116182;1182;68630;-67
2021/09/11 03:29:33;;;;;;;8.70;6.10;;;;;;;8.37;77.18;97629.70;116217;1183;67413;-67
2021/09/11 03:32:03;;;;;;;;;;;;;;;8.35;76.52;97629.60;116143;1183;59517;-67
2021/09/11 03:34:33;;;;;;;9.80;6.50;;;;;;;8.33;76.56;97628.84;116166;1182;59521;-66
2021/09/11 03:37:03;;;;;;;8.40;5.90;;;;;;;8.32;76.68;97632.77;116183;1181;71358;-69
2021/09/11 03:39:33;;;;;;;7.20;5.10;;;;;;;8.30;76.16;97633.60;116218;1183;68453;-65
2021/09/11 03:42:03;;;;;;;;;;;;;;;8.29;76.74;97634.87;116144;1183;68419;-65
2021/09/11 03:44:32;;;;;;;11.60;8.10;;;;;;;8.28;81.09;97636.81;116201;1181;59546;-65
2021/09/11 03:47:02;;;;;;;5.90;4.50;;;;;;;8.27;79.06;97637.22;116168;1183;59538;-68
2021/09/11 03:49:32;;;;;;;9.40;7.70;;;;;;;8.27;76.82;97638.80;116207;1183;69597;-68
2021/09/11 03:52:01;;;;;;;10.40;7.30;;;;;;;8.25;79.32;97638.21;116226;1178;68419;-67
2021/09/11 03:54:31;;;;;;;11.50;10.00;;;;;;;8.25;80.95;97636.13;116233;1183;69225;-68
2021/09/11 03:57:02;;;;;;;13.20;9.40;;;;;;;8.25;83.84;97632.86;116212;1182;59574;-65
2021/09/11 03:59:31;;;;;;;9.90;7.30;;;;;;;8.25;81.82;97632.52;116222;1181;59569;-67
2021/09/11 04:02:01;;;;;;;;;;;;;;;8.26;81.76;97631.92;116209;1178;70464;-68
2021/09/11 04:04:31;;;;;;;15.30;11.40;;;;;;;8.27;79.52;97633.55;116227;1182;68955;-67
2021/09/11 04:07:01;;;;;;;15.80;11.70;;;;;;;8.29;82.82;97637.98;116168;1182;69041;-68
2021/09/11 04:09:31;;;;;;;13.50;10.50;;;;;;;8.29;81.71;97636.91;116217;1180;59542;-68
2021/09/11 04:12:01;;;;;;;12.10;8.90;;;;;;;8.21;80.86;97636.89;116198;1181;59498;-67
2021/09/11 04:14:30;;;;;;;10.70;7.60;;;;;;;8.14;79.98;97640.05;116226;1183;71133;-69
2021/09/11 04:17:00;;;;;;;10.70;7.80;;;;;;;8.10;79.04;97643.76;116299;1182;69154;-69
2021/09/11 04:19:30;;;;;;;10.30;7.00;;;;;;;8.11;78.17;97644.05;116320;1178;69272;-66
2021/09/11 04:21:59;;;;;;;8.10;6.20;;;;;;;8.18;77.53;97644.52;116202;1182;59542;-66
2021/09/11 04:24:29;;;;;;;8.60;6.50;;;;;;;8.31;77.52;97646.52;116207;1181;59542;-68
2021/09/11 04:26:59;;;;;;;10.10;7.20;;;;;;;8.42;77.40;97645.55;116216;1182;70771;-69
2021/09/11 04:29:28;;;;;;;8.80;6.10;;;;;;;8.54;77.54;97651.25;116175;1181;68980;-67
2021/09/11 04:31:58;;;;;;;9.70;6.80;;;;;;;8.68;77.04;97657.69;116237;1182;68624;-64
2021/09/11 04:34:27;;;;;;;6.50;5.00;;;;;;;8.84;76.55;97655.65;116279;1180;59533;-68
2021/09/11 04:36:56;;;;;;;7.10;5.50;;;;;;;9.07;76.55;97656.52;116270;1182;59499;-69
2021/09/11 04:39:26;;;;;;;8.50;7.30;;;;;;;9.27;76.18;97658.36;116323;1182;71403;-69
2021/09/11 04:41:55;;;;;;;8.90;7.60;;;;;;;9.45;75.95;97658.79;116205;1182;68337;-67
2021/09/11 04:44:27;;;;;;;7.80;6.70;;;;;;;9.63;75.95;97661.42;116187;1182;69156;-65
2021/09/11 04:46:56;;;;;;;11.30;8.30;;;;;;;9.82;76.12;97661.29;116371;1183;59549;-65
2021/09/11 04:49:26;;;;;;;11.40;7.90;;;;;;;9.93;76.66;97661.90;116211;1181;59502;-65
2021/09/11 04:51:55;;;;;;;8.70;7.20;;;;;;;10.10;76.07;97661.99;116217;1182;71897;-67
2021/09/11 04:54:25;;;;;;;9.40;7.30;;;;;;;10.36;75.80;97656.47;116212;1182;68995;-66
2021/09/11 04:56:54;;;;;;;10.70;8.30;;;;;;;10.71;75.37;97663.10;116204;1183;69159;-68
2021/09/11 04:59:25;;;;;;;9.90;7.40;;;;;;;11.09;74.17;97666.58;116197;1183;59539;-66
2021/09/11 05:01:56;;;;;;;13.80;9.60;;;;;;;11.34;72.48;97669.99;116222;1182;59501;-65
2021/09/11 05:04:26;;;;;;;13.60;10.20;;;;;;;11.56;70.88;97673.31;116227;1182;71047;-68
2021/09/11 05:06:55;;;;;;;9.40;5.90;;;;;;;11.81;70.26;97674.24;116222;1182;68341;-67
2021/09/11 05:09:25;;;;;;;9.20;7.30;;;;;;;12.19;71.93;97669.56;116205;1184;69055;-66
2021/09/11 05:11:54;;;;;;;8.10;7.00;;;;;;;12.55;70.46;97664.52;116158;1182;59534;-69
2021/09/11 05:14:24;;;;;;;13.80;9.70;;;;;;;12.87;68.87;97664.84;116187;1182;59482;-69
2021/09/11 05:16:53;;;;;;;9.40;6.80;;;;;;;13.17;67.89;97669.16;116169;1182;70698;-68
2021/09/11 05:19:23;;;;;;;9.40;7.00;;;;;;;13.53;66.65;97668.36;116212;1181;68401;-65
2021/09/11 05:21:52;;;;;;;8.30;6.30;;;;;;;13.86;67.90;97666.70;116214;1181;68471;-69
2021/09/11 05:24:22;;;;;;;12.00;8.50;;;;;;;14.26;67.36;97660.77;116203;1181;59535;-69
2021/09/11 05:26:51;;;;;;;9.60;8.50;;;;;;;14.51;66.15;97664.33;116249;1181;59546;-67
2021/09/11 05:29:20;;;;;;;9.60;8.20;;;;;;;14.75;65.54;97662.27;116228;1182;70595;-68
2021/09/11 05:31:50;;;;;;;10.10;7.50;;;;;;;15.11;65.39;97663.38;116496;1181;69145;-68
2021/09/11 05:34:19;;;;;;;12.60;9.70;;;;;;;15.59;64.60;97659.65;116232;1177;69003;-65
2021/09/11 05:36:50;;;;;;;9.40;7.40;;;;;;;15.90;60.12;97656.08;116247;1181;59492;-67
2021/09/11 05:39:19;;;;;;;13.20;8.70;;;;;;;16.12;60.08;97659.45;116369;1178;59505;-66
2021/09/11 05:41:49;;;;;;;12.60;8.20;;;;;;;16.44;60.19;97654.22;116219;1182;70584;-66
2021/09/11 05:44:18;;;;;;;9.20;7.60;;;;;;;16.80;58.93;97658.60;116265;1181;69313;-66
2021/09/11 05:46:48;;;;;;;14.80;9.90;;;;;;;16.99;56.10;97661.23;116227;1181;69549;-66
2021/09/11 05:49:17;;;;;;;14.70;11.30;;;;;;;17.13;55.40;97660.78;116267;1178;59509;-68
2021/09/11 05:51:47;;;;;;;14.50;9.90;;;;;;;16.84;54.90;97657.73;116277;1181;59542;-67
2021/09/11 05:54:16;;;;;;;13.30;9.70;;;;;;;16.94;55.95;97660.98;116206;1182;71328;-65
2021/09/11 05:56:46;;;;;;;;;;;;;;;16.92;55.32;97661.40;116394;1181;68419;-67
2021/09/11 05:59:15;;;;;;;11.50;10.30;;;;;;;17.17;55.83;97662.67;116317;1180;68550;-68
2021/09/11 06:01:44;;;;;;;13.90;10.00;;;;;;;17.13;55.59;97665.68;116343;1181;59544;-66
2021/09/11 06:04:14;;;;;;;12.30;9.90;;;;;;;17.03;55.91;97669.98;116374;1181;59545;-66
2021/09/11 06:06:43;;;;;;;13.00;10.10;;;;;;;16.77;56.79;97668.63;116220;1182;71364;-66
2021/09/11 06:09:13;;;;;;;11.50;9.60;;;;;;;16.46;57.73;97666.71;116259;1179;69132;-66
2021/09/11 06:11:42;;;;;;;10.40;8.70;;;;;;;16.48;58.07;97666.86;116304;1181;69178;-66
2021/09/11 06:14:11;;;;;;;9.10;7.80;;;;;;;16.87;57.28;97668.89;116268;1182;59530;-66
2021/09/11 06:16:41;;;;;;;8.80;6.90;;;;;;;17.20;56.63;97666.32;116369;1179;59492;-66
2021/09/11 06:19:10;;;;;;;7.50;6.00;;;;;;;17.46;55.26;97665.76;116342;1179;70432;-65
2021/09/11 06:21:39;;;;;;;7.10;4.50;;;;;;;17.80;54.52;97664.05;116259;1181;69203;-66
2021/09/11 06:24:09;;;;;;;7.50;5.80;;;;;;;18.16;53.58;97664.84;116288;1178;69232;-66
2021/09/11 06:26:38;;;;;;;7.90;6.10;;;;;;;18.34;52.28;97664.67;116281;1178;59543;-65
2021/09/11 06:29:08;;;;;;;7.20;6.20;;;;;;;18.33;51.23;97667.75;116249;1181;59495;-65
2021/09/11 06:31:38;;;;;;;8.90;7.10;;;;;;;18.47;51.38;97665.27;116289;1181;71364;-68
2021/09/11 06:34:07;;;;;;;7.50;5.00;;;;;;;18.89;51.82;97666.14;116269;1182;69184;-68
2021/09/11 06:36:36;;;;;;;7.80;6.30;;;;;;;19.69;50.72;97666.60;116359;1179;68248;-68
2021/09/11 06:39:05;;;;;;;7.10;6.20;;;;;;;19.60;47.60;97664.56;116342;1182;59539;-66
2021/09/11 06:41:35;;;;;;;6.60;4.70;;;;;;;20.11;48.26;97661.57;116259;1181;59619;-66
2021/09/11 06:44:05;;;;;;;8.60;5.70;;;;;;;20.69;46.41;97656.34;116235;1179;71178;-66
2021/09/11 06:46:34;;;;;;;;;;;;;;;21.04;45.23;97658.67;116268;1181;69274;-65
2021/09/11 06:49:03;;;;;;;7.90;6.10;;;;;;;20.63;44.66;97661.27;116262;1181;69677;-66
2021/09/11 06:51:33;;;;;;;8.20;6.80;;;;;;;20.31;45.37;97662.40;116468;1178;59563;-67
2021/09/11 06:54:02;;;;;;;7.00;6.00;;;;;;;20.76;45.85;97662.18;116516;1176;59599;-67
2021/09/11 06:56:31;;;;;;;6.50;5.40;;;;;;;20.69;44.88;97658.86;116352;1182;71740;-67
2021/09/11 06:59:00;;;;;;;7.70;6.50;;;;;;;21.09;43.94;97661.34;116404;1179;69262;-66
2021/09/11 07:01:29;;;;;;;8.00;6.60;;;;;;;21.06;43.73;97662.11;116319;1179;68559;-67
2021/09/11 07:03:58;;;;;;;7.60;5.20;;;;;;;21.60;43.58;97658.54;116409;1181;59473;-67
2021/09/11 07:06:28;;;;;;;5.40;4.50;;;;;;;21.69;41.83;97655.69;116366;1181;59527;-66
2021/09/11 07:08:57;;;;;;;6.80;6.10;;;;;;;21.22;42.65;97658.62;116461;1182;71167;-66
2021/09/11 07:11:26;;;;;;;6.00;4.70;;;;;;;21.35;42.93;97659.59;116354;1181;69421;-66
2021/09/11 07:13:55;;;;;;;7.50;5.80;;;;;;;21.92;42.70;97653.09;116361;1181;67298;-67
2021/09/11 07:16:24;;;;;;;7.30;6.20;;;;;;;22.26;42.30;97653.91;116356;1182;59594;-66
2021/09/11 07:18:53;;;;;;;;;;;;;;;22.30;42.45;97652.47;116333;1177;59579;-64
2021/09/11 07:21:22;;;;;;;7.30;5.70;;;;;;;21.98;41.68;97653.01;116262;1181;71342;-69
2021/09/11 07:23:51;;;;;;;7.00;5.40;;;;;;;21.82;42.12;97652.55;116338;1182;69315;-68
2021/09/11 07:26:21;;;;;;;7.30;6.10;;;;;;;21.83;42.00;97652.17;116264;1181;68590;-67
2021/09/11 07:28:51;;;;;;;7.00;5.70;;;;;;;21.32;43.10;97658.64;116354;1182;59472;-67
2021/09/11 07:31:20;;;;;;;7.60;5.60;;;;;;;21.19;43.51;97654.09;116279;1182;59548;-69
2021/09/11 07:33:50;;;;;;;6.80;5.30;;;;;;;20.66;44.56;97656.40;116307;1182;72003;-69
2021/09/11 07:36:19;;;;;;;8.20;6.00;;;;;;;20.66;44.53;97653.79;116246;1182;69165;-72
2021/09/11 07:38:49;;;;;;;7.70;6.00;;;;;;;20.36;45.23;97655.49;116363;1179;68581;-68
2021/09/11 07:41:18;;;;;;;;;;;;;;;20.57;44.70;97657.13;116289;1178;59936;-69
2021/09/11 07:43:47;;;;;;;7.30;5.00;;;;;;;20.99;43.93;97653.70;116396;1181;59558;-69
2021/09/11 07:46:16;;;;;;;5.90;4.40;;;;;;;21.39;42.87;97653.50;116338;1182;71158;-66
2021/09/11 07:48:45;;;;;;;5.30;3.80;;;;;;;21.90;42.88;97650.02;116303;1178;67776;-67
2021/09/11 07:51:14;;;;;;;6.90;4.60;;;;;;;22.59;41.91;97646.35;116308;1177;68483;-69
2021/09/11 07:53:43;;;;;;;6.50;4.50;;;;;;;23.19;40.34;97648.25;116337;1182;59511;-67
2021/09/11 07:56:12;;;;;;;7.20;5.10;;;;;;;23.47;38.79;97648.15;116314;1181;59496;-70
2021/09/11 07:58:41;;;;;;;;;;;;;;;23.37;38.25;97647.30;116246;1182;71314;-69
2021/09/11 08:01:10;;;;;;;8.80;5.70;;;;;;;23.47;38.88;97649.13;116317;1180;69550;-67
2021/09/11 08:03:40;;;;;;;4.30;3.40;;;;;;;24.19;37.96;97644.11;116219;1181;69333;-70
2021/09/11 08:06:09;;;;;;;6.90;5.10;;;;;;;24.93;36.52;97644.17;116270;1178;59485;-67
2021/09/11 08:08:39;;;;;;;8.60;5.50;;;;;;;25.38;35.69;97642.89;116316;1181;59527;-67
2021/09/11 08:11:08;;;;;;;6.50;4.50;;;;;;;24.73;35.34;97639.85;116336;1178;70649;-70
2021/09/11 08:13:37;;;;;;;5.70;4.70;;;;;;;25.09;35.16;97640.44;116419;1182;69280;-67
2021/09/11 08:16:06;;;;;;;8.40;6.20;;;;;;;24.70;35.27;97637.56;116640;1176;69265;-65
2021/09/11 08:18:36;;;;;;;5.90;4.90;;;;;;;24.94;35.24;97635.95;116345;1182;59541;-69
2021/09/11 08:21:05;;;;;;;10.90;5.70;;;;;;;25.19;35.26;97636.05;116354;1178;59539;-71
2021/09/11 08:23:34;;;;;;;7.00;4.90;;;;;;;24.75;34.92;97634.79;116314;1183;69448;-67
2021/09/11 08:26:04;;;;;;;8.30;6.10;;;;;;;24.78;35.32;97635.10;116320;1182;69529;-71
2021/09/11 08:28:33;;;;;;;9.00;7.10;;;;;;;24.31;36.08;97640.29;116334;1182;68458;-71
2021/09/11 08:31:02;;;;;;;8.50;6.20;;;;;;;24.28;36.20;97634.98;116329;1179;59550;-66
2021/09/11 08:33:31;;;;;;;7.90;6.90;;;;;;;24.82;35.28;97632.89;116337;1178;59543;-66
2021/09/11 08:36:01;;;;;;;9.50;7.00;;;;;;;24.14;36.39;97631.18;116325;1181;71415;-66
2021/09/11 08:38:34;;;;;;;8.30;6.70;;;;;;;23.91;36.47;97631.73;116362;1182;69145;-70
2021/09/11 08:41:06;;;;;;;8.30;6.10;;;;;;;24.83;34.69;97626.08;116310;1181;69222;-67
2021/09/11 08:43:36;;;;;;;6.80;5.50;;;;;;;24.95;34.55;97622.70;116310;1182;59505;-70
2021/09/11 08:46:06;;;;;;;9.50;7.20;;;;;;;25.82;33.38;97617.49;116306;1178;59527;-67
2021/09/11 08:48:35;;;;;;;5.70;4.90;;;;;;;26.35;32.19;97613.39;116352;1182;71506;-68
2021/09/11 08:51:04;;;;;;;7.80;6.80;;;;;;;26.81;31.04;97607.95;116288;1182;69260;-68
2021/09/11 08:53:35;;;;;;;;;;;;;;;27.22;30.52;97609.25;116325;1183;69194;-68
2021/09/11 08:56:05;;;;;;;8.90;7.50;;;;;;;27.78;30.47;97604.70;116345;1179;59545;-66
2021/09/11 08:58:34;;;;;;;5.30;4.80;;;;;;;28.10;29.33;97601.22;116293;1178;59521;-69
2021/09/11 09:01:03;;;;;;;6.70;6.00;;;;;;;28.05;28.52;97593.97;116288;1182;69648;-70
2021/09/11 09:03:34;;;;;;;7.40;5.90;;;;;;;27.89;29.24;97596.13;116162;1183;68566;-66
2021/09/11 09:06:21;;;;;;;7.40;6.60;;;;;;;28.07;29.71;97594.80;116323;1182;69192;-70
2021/09/11 09:08:54;;;;;;;11.40;7.20;;;;;;;28.24;29.45;97589.16;116310;1181;59533;-68
2021/09/11 09:11:27;;;;;;;8.70;7.70;;;;;;;27.66;30.38;97595.17;116425;1179;59504;-66
2021/09/11 09:14:08;;;;;;;9.20;6.30;;;;;;;27.75;30.07;97595.09;116469;1181;70775;-68
2021/09/11 09:16:42;;;;;;;6.70;5.70;;;;;;;27.82;30.36;97593.98;116408;1182;68489;-71
2021/09/11 09:19:11;;;;;;;7.80;6.40;;;;;;;27.00;31.13;97591.52;116376;1181;68785;-67
2021/09/11 09:21:42;;;;;;;11.30;7.80;;;;;;;27.52;30.81;97595.29;116309;1182;60046;-66
2021/09/11 09:24:13;;;;;;;9.30;8.20;;;;;;;27.06;31.19;97595.96;116341;1178;59499;-68
2021/09/11 09:26:54;;;;;;;10.00;7.40;;;;;;;25.83;33.75;97591.95;116420;1181;70794;-66
2021/09/11 09:29:28;;;;;;;7.30;5.50;;;;;;;27.05;32.53;97589.25;116410;1181;69313;-69
2021/09/11 09:31:59;;;;;;;8.00;6.00;;;;;;;28.15;30.51;97584.19;116275;1183;69041;-69
2021/09/11 09:34:30;;;;;;;6.00;5.40;;;;;;;28.83;29.28;97578.33;116226;1179;59489;-67
2021/09/11 09:37:03;;;;;;;8.60;7.70;;;;;;;28.81;29.21;97580.79;116333;1179;59546;-67
2021/09/11 09:39:40;;;;;;;6.30;5.70;;;;;;;28.78;29.12;97575.08;116280;1183;70586;-68
2021/09/11 09:42:11;;;;;;;10.70;9.30;;;;;;;29.12;29.29;97579.66;116314;1181;68959;-68
2021/09/11 09:44:45;;;;;;;12.80;8.90;;;;;;;28.16;29.93;97582.11;116394;1181;68707;-67
2021/09/11 09:47:17;;;;;;;8.40;7.10;;;;;;;29.07;28.62;97578.80;116322;1181;59539;-67
2021/09/11 09:50:07;;;;;;;9.20;7.30;;;;;;;29.41;28.19;97577.36;116372;1179;59537;-67
2021/09/11 09:52:36;;;;;;;;;;;;;;;29.46;28.11;97579.20;116383;1179;70662;-68
2021/09/11 09:55:08;;;;;;;11.10;8.90;;;;;;;28.55;29.22;97579.59;116358;1182;69655;-68
2021/09/11 09:57:38;;;;;;;12.40;9.70;;;;;;;27.88;30.59;97582.84;116328;1181;69103;-69
2021/09/11 10:00:08;;;;;;;9.80;8.30;;;;;;;28.33;30.01;97572.58;116415;1181;59534;-69
2021/09/11 10:02:39;;;;;;;14.30;11.70;;;;;;;28.48;30.26;97573.83;116346;1181;59488;-70
2021/09/11 10:05:13;;;;;;;16.30;13.30;;;;;;;27.75;30.63;97573.82;116338;1182;71366;-69
2021/09/11 10:08:06;;;;;;;10.80;8.80;;;;;;;27.37;31.40;97573.74;116290;1182;68554;-71
2021/09/11 10:10:39;;;;;;;16.30;13.80;;;;;;;27.11;31.47;97573.08;116418;1182;69004;-70
2021/09/11 10:13:23;;;;;;;12.20;10.30;;;;;;;26.88;31.72;97568.12;116369;1182;59553;-70
2021/09/11 10:15:57;;;;;;;14.30;12.80;;;;;;;27.53;31.00;97569.52;116356;1182;59543;-67
2021/09/11 10:18:37;;;;;;;16.50;14.40;;;;;;;27.38;31.05;97564.60;116398;1182;71448;-70
2021/09/11 10:21:16;;;;;;;13.80;10.50;;;;;;;27.75;30.97;97565.88;116407;1182;69073;-70
2021/09/11 10:23:57;;;;;;;9.40;7.60;;;;;;;28.89;30.19;97563.45;116524;1179;68465;-67
2021/09/11 10:26:49;;;;;;;8.30;7.40;;;;;;;30.18;28.00;97561.52;116304;1181;59535;-69
2021/09/11 10:29:37;;;;;;;7.50;6.00;;;;;;;31.20;27.92;97563.60;116238;1182;59541;-72
2021/09/11 10:32:08;;;;;;;7.20;5.90;;;;;;;32.30;25.66;97559.98;116311;1181;71166;-70
2021/09/11 10:34:46;;;;;;;7.10;5.30;;;;;;;33.09;23.48;97561.61;116323;1181;69623;-70
2021/09/11 10:37:33;;;;;;;5.70;4.20;;;;;;;33.52;22.74;97559.61;116286;1181;69267;-71
2021/09/11 10:40:32;;;;;;;7.60;5.90;;;;;;;34.15;22.16;97559.30;116315;1181;59459;-69
2021/09/11 10:43:06;;;;;;;5.70;5.10;;;;;;;34.87;21.21;97564.05;116272;1182;59568;-71
2021/09/11 10:45:47;;;;;;;4.90;4.40;;;;;;;34.89;18.90;97561.39;116322;1182;70484;-68
2021/09/11 10:48:44;;;;;;;6.80;5.40;;;;;;;35.00;19.19;97557.11;116317;1182;68226;-68
2021/09/11 10:51:33;;;;;;;7.70;6.90;;;;;;;35.31;20.01;97557.08;116282;1181;68563;-68
2021/09/11 10:54:04;;;;;;;9.20;7.80;;;;;;;35.46;19.78;97558.44;116303;1181;59501;-67
2021/09/11 10:56:47;;;;;;;7.90;5.70;;;;;;;35.92;19.59;97559.39;116316;1178;59527;-67
2021/09/11 10:59:16;;;;;;;6.70;5.80;;;;;;;36.56;19.03;97553.17;116327;1179;71456;-68
2021/09/11 11:02:04;;;;;;;10.70;9.60;;;;;;;36.82;17.59;97548.77;116346;1180;69229;-70
2021/09/11 11:04:49;;;;;;;8.00;6.10;;;;;;;36.76;18.04;97542.79;116456;1180;69274;-68
2021/09/11 11:07:18;;;;;;;5.60;4.90;;;;;;;37.09;18.27;97534.24;116415;1179;59547;-68
2021/09/11 11:10:01;;;;;;;6.10;4.70;;;;;;;37.25;17.67;97532.05;116332;1182;59498;-70
2021/09/11 11:12:45;;;;;;;10.40;8.10;;;;;;;37.53;17.74;97531.89;116327;1181;71453;-69
2021/09/11 11:15:25;;;;;;;7.40;6.50;;;;;;;37.96;16.35;97525.40;116348;1182;69199;-67
2021/09/11 11:17:54;;;;;;;7.40;6.10;;;;;;;38.40;17.07;97520.25;116470;1181;69797;-68
2021/09/11 11:20:27;;;;;;;7.50;6.30;;;;;;;38.92;16.95;97513.02;116483;1182;60396;-68
2021/09/11 11:22:58;;;;;;;10.20;9.10;;;;;;;39.22;16.43;97508.35;116544;1182;59533;-73
2021/09/11 11:25:38;;;;;;;9.90;8.30;;;;;;;39.35;16.12;97512.29;116471;1182;71348;-70
2021/09/11 11:28:09;;;;;;;9.80;8.30;;;;;;;39.32;15.96;97508.39;116543;1182;68971;-74
2021/09/11 11:30:41;;;;;;;11.50;10.20;;;;;;;39.24;16.24;97504.94;116532;1182;68688;-69
2021/09/11 11:33:10;;;;;;;7.20;6.40;;;;;;;39.35;15.72;97502.71;116574;1180;59546;-67
2021/09/11 11:35:41;;;;;;;11.00;9.20;;;;;;;39.67;15.21;97499.35;116503;1179;59515;-75
2021/09/11 11:38:11;;;;;;;7.60;6.80;;;;;;;39.63;16.03;97496.41;116531;1180;70857;-68
2021/09/11 11:40:40;;;;;;;9.70;8.70;;;;;;;39.20;15.44;97489.30;116536;1181;68434;-69
2021/09/11 11:43:11;;;;;;;7.30;5.80;;;;;;;37.61;16.66;97485.13;116381;1182;68462;-68
2021/09/11 11:45:46;;;;;;;12.10;10.70;;;;;;;38.02;16.86;97484.68;116463;1181;59530;-71
2021/09/11 11:48:19;;;;;;;6.90;5.90;;;;;;;37.37;16.98;97479.10;116328;1182;59537;-73